Time;durP1;ratioP1;P1;durP2;ratioP2;P2;SDS_P1;SDS_P2;PMS_P1;PMS_P2;Temp;Humidity;BMP_temperature;BMP_pressure;BME280_temperature;BME280_humidity;BME280_pressure;Samples;Min_cycle;Max_cycle;Signal;HPM_P1;HPM_P2
2021/12/09 00:00:01;;;;;;;23.30;8.40;;;;;;;-8.46;78.61;99675.46;99859;1340;74223;-63
2021/12/09 00:03:07;;;;;;;23.00;8.60;;;;;;;-8.47;79.02;99675.98;100082;1337;67583;-66
2021/12/09 00:05:57;;;;;;;20.80;8.20;;;;;;;-8.45;79.15;99680.97;99396;1340;1003622;-65
2021/12/09 00:08:46;;;;;;;20.80;7.50;;;;;;;-8.46;78.38;99677.70;100129;1337;59770;-65
2021/12/09 00:11:43;;;;;;;20.70;7.60;;;;;;;-8.49;78.37;99678.06;100095;1339;60619;-65
2021/12/09 00:14:34;;;;;;;23.00;7.80;;;;;;;-8.51;78.53;99676.70;99330;1337;1003492;-66
2021/12/09 00:17:22;;;;;;;20.80;7.30;;;;;;;-8.50;79.45;99679.10;99816;1340;68654;-67
2021/12/09 00:20:12;;;;;;;23.80;8.30;;;;;;;-8.47;79.43;99677.00;99908;1340;73329;-66
2021/12/09 00:23:00;;;;;;;19.60;8.00;;;;;;;-8.45;78.74;99671.48;100168;1336;60171;-65
2021/12/09 00:25:49;;;;;;;20.80;7.70;;;;;;;-8.42;79.39;99664.05;100180;1342;60557;-65
2021/12/09 00:28:37;;;;;;;19.30;7.40;;;;;;;-8.42;79.33;99663.37;100243;1337;73744;-64
2021/12/09 00:31:26;;;;;;;24.10;9.00;;;;;;;-8.40;78.80;99659.55;99880;1339;68861;-65
2021/12/09 00:34:19;;;;;;;19.80;7.30;;;;;;;-8.39;78.91;99661.60;99952;1340;73397;-66
2021/12/09 00:37:35;;;;;;;21.00;8.50;;;;;;;-8.40;78.41;99662.66;99971;1338;59764;-65
2021/12/09 00:40:23;;;;;;;22.20;8.00;;;;;;;-8.38;78.50;99656.79;100000;1340;59641;-65
2021/12/09 00:43:11;;;;;;;23.20;8.20;;;;;;;-8.35;78.60;99651.95;99948;1342;72781;-65
2021/12/09 00:46:00;;;;;;;24.60;8.60;;;;;;;-8.32;78.10;99650.38;100005;1340;67948;-63
2021/12/09 00:48:49;;;;;;;21.70;8.70;;;;;;;-8.33;77.34;99650.89;99664;1340;73167;-67
2021/12/09 00:51:37;;;;;;;21.70;7.70;;;;;;;-8.32;77.70;99652.27;100092;1340;61291;-64
2021/12/09 00:54:26;;;;;;;20.20;7.80;;;;;;;-8.31;76.28;99651.23;99384;1336;1003203;-66
2021/12/09 00:57:15;;;;;;;18.30;6.60;;;;;;;-8.31;77.40;99643.31;99966;1339;74372;-72
2021/12/09 01:00:17;;;;;;;25.20;8.50;;;;;;;-8.29;77.26;99641.92;99993;1336;68027;-66
2021/12/09 01:03:05;;;;;;;21.80;8.20;;;;;;;-8.26;77.35;99641.38;99162;1340;1003593;-66
2021/12/09 01:05:54;;;;;;;21.70;9.10;;;;;;;-8.25;76.65;99644.46;100036;1336;59832;-65
2021/12/09 01:09:02;;;;;;;22.50;8.40;;;;;;;-8.28;76.24;99642.09;100038;1337;60431;-66
2021/12/09 01:11:51;;;;;;;25.10;8.70;;;;;;;-8.26;76.42;99634.33;100069;1336;73089;-71
2021/12/09 01:14:40;;;;;;;21.70;8.50;;;;;;;-8.24;76.04;99637.06;99785;1337;67715;-65
2021/12/09 01:17:28;;;;;;;25.10;8.30;;;;;;;-8.25;76.05;99633.97;100063;1343;73774;-65
2021/12/09 01:20:24;;;;;;;24.80;8.60;;;;;;;-8.24;75.95;99629.99;99828;1340;59773;-65
2021/12/09 01:23:13;;;;;;;21.50;8.40;;;;;;;-8.22;75.02;99628.44;99767;1342;60400;-65
2021/12/09 01:26:04;;;;;;;17.50;6.80;;;;;;;-8.22;74.66;99626.03;99638;1342;74781;-66
2021/12/09 01:28:57;;;;;;;19.10;6.60;;;;;;;-8.22;74.03;99624.81;99692;1346;68582;-65
2021/12/09 01:31:56;;;;;;;18.50;7.40;;;;;;;-8.20;74.88;99628.08;99585;1339;71832;-65
2021/12/09 01:34:44;;;;;;;17.90;7.30;;;;;;;-8.18;74.86;99623.59;99614;1342;59906;-65
2021/12/09 01:37:33;;;;;;;19.20;7.40;;;;;;;-8.17;74.11;99619.27;99495;1342;59663;-64
2021/12/09 01:40:25;;;;;;;17.20;7.20;;;;;;;-8.15;74.49;99616.34;99903;1339;73138;-65
2021/12/09 01:43:14;;;;;;;17.60;7.20;;;;;;;-8.14;74.03;99605.98;98199;1345;1003238;-63
2021/12/09 01:46:16;;;;;;;19.60;7.50;;;;;;;-8.12;73.95;99605.45;98942;1342;1004002;-63
2021/12/09 01:49:04;;;;;;;20.30;7.30;;;;;;;-8.12;73.99;99594.08;99591;1342;59751;-65
2021/12/09 01:51:53;;;;;;;22.90;7.00;;;;;;;-8.10;73.05;99589.42;99559;1347;60618;-63
2021/12/09 01:54:41;;;;;;;12.80;4.70;;;;;;;-8.14;72.49;99585.48;99107;1337;1003238;-64
2021/12/09 01:57:30;;;;;;;17.00;7.20;;;;;;;-8.13;72.45;99584.64;99355;1336;1003063;-64
2021/12/09 02:00:27;;;;;;;18.10;6.60;;;;;;;-8.12;72.20;99585.31;99774;1342;69955;-66
2021/12/09 02:03:16;;;;;;;19.00;8.00;;;;;;;-8.11;72.54;99580.98;99808;1340;60603;-64
2021/12/09 02:06:04;;;;;;;18.00;6.90;;;;;;;-8.09;72.53;99585.98;100038;1337;60335;-66
2021/12/09 02:08:55;;;;;;;18.80;6.60;;;;;;;-8.07;72.39;99586.30;99432;1336;1003632;-64
2021/12/09 02:11:43;;;;;;;17.10;6.40;;;;;;;-8.07;72.57;99585.60;99951;1336;67740;-64
2021/12/09 02:14:32;;;;;;;16.80;7.10;;;;;;;-8.06;72.22;99583.20;99920;1336;72960;-66
2021/12/09 02:17:20;;;;;;;17.00;6.60;;;;;;;-8.07;71.78;99584.91;99554;1343;60901;-66
2021/12/09 02:20:10;;;;;;;12.30;4.60;;;;;;;-8.08;72.42;99582.00;99636;1343;59859;-66
2021/12/09 02:22:59;;;;;;;15.70;5.80;;;;;;;-8.07;72.16;99581.47;99712;1339;73800;-66
2021/12/09 02:25:47;;;;;;;17.20;6.90;;;;;;;-8.05;72.79;99579.05;99821;1348;67649;-66
2021/12/09 02:28:36;;;;;;;17.70;6.00;;;;;;;-8.04;72.55;99573.70;99599;1342;73393;-64
2021/12/09 02:31:27;;;;;;;15.80;6.40;;;;;;;-8.03;72.39;99575.92;99558;1346;59641;-65
2021/12/09 02:34:15;;;;;;;16.70;7.10;;;;;;;-8.01;72.37;99571.96;99651;1342;59729;-66
2021/12/09 02:37:09;;;;;;;12.90;5.60;;;;;;;-7.98;72.27;99568.82;99557;1342;73061;-63
2021/12/09 02:39:58;;;;;;;16.30;7.00;;;;;;;-7.97;72.19;99564.16;99799;1341;69809;-65
2021/12/09 02:42:47;;;;;;;15.80;6.50;;;;;;;-7.95;71.67;99565.86;99791;1345;73568;-65
2021/12/09 02:45:39;;;;;;;16.80;6.50;;;;;;;-7.95;71.30;99555.86;99453;1342;60180;-67
2021/12/09 02:48:27;;;;;;;15.90;5.00;;;;;;;-7.92;71.79;99554.65;99871;1344;61173;-66
2021/12/09 02:51:16;;;;;;;14.20;5.20;;;;;;;-7.89;71.78;99555.45;99215;1339;1003858;-65
2021/12/09 02:54:08;;;;;;;14.00;5.60;;;;;;;-7.83;71.74;99553.34;99903;1337;69813;-65
2021/12/09 02:57:06;;;;;;;17.00;6.60;;;;;;;-7.80;71.55;99557.27;99661;1337;71928;-64
2021/12/09 02:59:54;;;;;;;15.30;5.70;;;;;;;-7.75;71.15;99554.12;99876;1339;60327;-63
2021/12/09 03:02:44;;;;;;;17.90;5.70;;;;;;;-7.68;71.38;99550.75;99916;1340;60322;-64
2021/12/09 03:05:32;;;;;;;16.80;5.60;;;;;;;-7.61;71.32;99549.98;99879;1339;73838;-65
2021/12/09 03:08:34;;;;;;;15.20;5.10;;;;;;;-7.54;71.47;99542.31;99786;1336;69276;-63
2021/12/09 03:11:24;;;;;;;14.10;5.50;;;;;;;-7.45;71.69;99545.66;99757;1339;74251;-65
2021/12/09 03:14:12;;;;;;;15.10;5.80;;;;;;;-7.38;71.74;99542.48;99967;1343;60226;-63
2021/12/09 03:17:00;;;;;;;16.20;5.80;;;;;;;-7.29;71.61;99541.15;99730;1336;60377;-64
2021/12/09 03:19:50;;;;;;;16.00;5.80;;;;;;;-7.25;71.77;99546.94;99944;1336;73607;-64
2021/12/09 03:22:44;;;;;;;15.80;7.10;;;;;;;-7.15;72.38;99547.50;99389;1336;1003346;-63
2021/12/09 03:25:32;;;;;;;18.30;6.30;;;;;;;-7.07;72.03;99540.16;99808;1339;73659;-65
2021/12/09 03:28:20;;;;;;;15.10;6.00;;;;;;;-7.01;72.39;99543.16;99663;1340;59776;-65
2021/12/09 03:31:08;;;;;;;15.60;6.30;;;;;;;-6.95;72.04;99543.60;99980;1339;60391;-67
2021/12/09 03:33:58;;;;;;;14.00;5.50;;;;;;;-6.88;72.23;99544.88;100166;1340;73934;-65
2021/12/09 03:36:50;;;;;;;13.50;5.30;;;;;;;-6.83;71.99;99538.60;99906;1339;66589;-64
2021/12/09 03:39:40;;;;;;;14.90;5.10;;;;;;;-6.76;72.38;99527.96;99682;1340;72673;-63
2021/12/09 03:42:30;;;;;;;12.90;5.40;;;;;;;-6.70;72.12;99522.86;99849;1336;59736;-63
2021/12/09 03:45:18;;;;;;;14.30;5.40;;;;;;;-6.65;71.72;99513.64;99891;1343;60594;-64
2021/12/09 03:48:07;;;;;;;16.00;4.30;;;;;;;-6.60;71.75;99506.67;99724;1337;75002;-62
2021/12/09 03:50:56;;;;;;;12.60;5.50;;;;;;;-6.56;71.29;99512.45;100214;1337;69176;-62
2021/12/09 03:53:44;;;;;;;15.90;5.90;;;;;;;-6.52;71.15;99519.63;100130;1336;74356;-64
2021/12/09 03:56:35;;;;;;;16.40;6.60;;;;;;;-6.51;70.50;99517.55;100274;1337;59760;-64
2021/12/09 03:59:24;;;;;;;17.50;6.20;;;;;;;-6.53;71.07;99516.89;100050;1337;59653;-64
2021/12/09 04:02:13;;;;;;;16.20;6.30;;;;;;;-6.51;71.27;99520.65;100080;1340;74722;-65
2021/12/09 04:05:02;;;;;;;14.40;5.80;;;;;;;-6.50;70.96;99522.03;99758;1343;68727;-65
2021/12/09 04:07:51;;;;;;;16.50;5.80;;;;;;;-6.52;70.73;99528.27;99883;1337;73835;-64
2021/12/09 04:10:40;;;;;;;14.40;6.20;;;;;;;-6.55;70.63;99530.39;99673;1339;59830;-64
2021/12/09 04:13:30;;;;;;;15.50;5.70;;;;;;;-6.61;70.68;99528.23;99112;1339;1003194;-65
2021/12/09 04:16:18;;;;;;;13.60;5.60;;;;;;;-6.67;70.56;99526.45;99747;1343;74580;-66
2021/12/09 04:19:09;;;;;;;14.70;5.70;;;;;;;-6.70;71.24;99523.22;99786;1340;68673;-66
2021/12/09 04:21:57;;;;;;;13.60;5.60;;;;;;;-6.72;71.42;99525.99;99973;1336;73484;-65
2021/12/09 04:24:48;;;;;;;16.10;5.90;;;;;;;-6.74;71.57;99528.96;99386;1337;1003191;-63
2021/12/09 04:27:36;;;;;;;13.10;5.20;;;;;;;-6.77;71.59;99530.05;100030;1337;60786;-63
2021/12/09 04:30:25;;;;;;;15.30;6.10;;;;;;;-6.79;71.83;99524.56;100124;1337;74852;-63
2021/12/09 04:33:14;;;;;;;15.20;6.00;;;;;;;-6.83;72.20;99529.45;100108;1337;69572;-66
2021/12/09 04:36:04;;;;;;;15.70;5.60;;;;;;;-6.86;72.24;99527.58;99888;1337;73621;-66
2021/12/09 04:38:54;;;;;;;13.00;4.90;;;;;;;-6.88;72.43;99518.47;99961;1337;59717;-67
2021/12/09 04:41:43;;;;;;;14.80;5.40;;;;;;;-6.89;72.47;99519.88;99750;1337;59653;-67
2021/12/09 04:44:31;;;;;;;13.00;5.10;;;;;;;-6.90;72.75;99515.23;99937;1336;74639;-67
2021/12/09 04:47:20;;;;;;;15.40;5.40;;;;;;;-6.90;72.55;99509.02;99903;1339;69804;-68
2021/12/09 04:50:10;;;;;;;11.00;4.80;;;;;;;-6.89;72.73;99502.63;99908;1336;73364;-68
2021/12/09 04:52:59;;;;;;;12.10;4.40;;;;;;;-6.89;72.85;99499.34;100125;1337;59748;-68
2021/12/09 04:55:47;;;;;;;12.20;5.60;;;;;;;-6.90;73.03;99497.81;99291;1336;1003572;-65
2021/12/09 04:58:36;;;;;;;11.90;4.70;;;;;;;-6.88;72.90;99500.88;99348;1343;1002797;-65
2021/12/09 05:01:26;;;;;;;16.30;5.90;;;;;;;-6.85;73.15;99500.84;99679;1340;68663;-66
2021/12/09 05:04:15;;;;;;;14.20;5.70;;;;;;;-6.81;72.92;99499.59;99993;1340;73417;-66
2021/12/09 05:07:04;;;;;;;18.60;7.10;;;;;;;-6.77;72.97;99499.69;100018;1337;59929;-66
2021/12/09 05:09:53;;;;;;;17.60;5.30;;;;;;;-6.73;73.19;99500.83;99308;1337;1003868;-67
2021/12/09 05:12:41;;;;;;;14.80;6.10;;;;;;;-6.68;73.39;99492.98;99879;1337;72548;-68
2021/12/09 05:15:32;;;;;;;16.10;5.50;;;;;;;-6.63;73.24;99499.46;99737;1340;68520;-68
2021/12/09 05:18:21;;;;;;;13.00;5.10;;;;;;;-6.59;72.90;99503.36;99992;1339;72460;-67
2021/12/09 05:21:12;;;;;;;16.40;6.00;;;;;;;-6.57;73.31;99504.88;99883;1340;59856;-66
2021/12/09 05:24:00;;;;;;;12.20;4.40;;;;;;;-6.54;72.99;99500.52;99982;1340;59728;-67
2021/12/09 05:26:52;;;;;;;9.50;3.50;;;;;;;-6.49;73.29;99501.12;99870;1339;74251;-67
2021/12/09 05:29:44;;;;;;;11.80;5.10;;;;;;;-6.49;72.68;99506.13;99800;1337;67271;-67
2021/12/09 05:32:32;;;;;;;16.30;5.50;;;;;;;-6.51;72.69;99497.02;99906;1337;191111;-67
2021/12/09 05:35:20;;;;;;;14.00;5.80;;;;;;;-6.53;72.95;99498.59;100059;1337;59885;-67
2021/12/09 05:38:09;;;;;;;15.70;5.10;;;;;;;-6.56;73.11;99503.13;99825;1336;59718;-67
2021/12/09 05:40:57;;;;;;;15.60;5.70;;;;;;;-6.58;73.05;99506.61;99838;1337;74762;-67
2021/12/09 05:43:45;;;;;;;17.60;6.60;;;;;;;-6.61;73.22;99519.44;100005;1340;67178;-66
2021/12/09 05:46:37;;;;;;;15.90;5.80;;;;;;;-6.63;73.43;99512.90;99847;1336;73457;-66
2021/12/09 05:49:26;;;;;;;13.80;5.50;;;;;;;-6.60;74.00;99496.30;100007;1336;59859;-69
2021/12/09 05:52:15;;;;;;;16.10;5.50;;;;;;;-6.56;73.91;99501.76;100018;1336;62471;-68
2021/12/09 05:55:04;;;;;;;14.50;5.80;;;;;;;-6.52;73.84;99512.38;100133;1337;73924;-67
2021/12/09 05:57:52;;;;;;;15.70;5.60;;;;;;;-6.49;73.63;99513.72;100049;1340;69512;-68
2021/12/09 06:00:41;;;;;;;14.80;5.90;;;;;;;-6.50;73.87;99506.30;100214;1337;73632;-67
2021/12/09 06:03:29;;;;;;;14.50;5.40;;;;;;;-6.46;74.06;99511.27;99969;1337;59705;-70
2021/12/09 06:06:19;;;;;;;18.40;6.00;;;;;;;-6.43;74.28;99508.61;99989;1337;60571;-66
2021/12/09 06:09:10;;;;;;;16.00;6.30;;;;;;;-6.43;73.61;99515.34;99760;1342;73876;-66
2021/12/09 06:12:01;;;;;;;14.00;5.70;;;;;;;-6.44;73.67;99520.71;99796;1336;68636;-66
2021/12/09 06:14:49;;;;;;;15.50;5.60;;;;;;;-6.43;73.84;99516.73;99742;1336;74688;-67
2021/12/09 06:17:38;;;;;;;15.70;5.40;;;;;;;-6.45;74.09;99517.45;100077;1337;59834;-67
2021/12/09 06:20:27;;;;;;;14.90;6.40;;;;;;;-6.42;73.89;99517.58;99696;1343;60467;-69
2021/12/09 06:23:16;;;;;;;18.50;6.40;;;;;;;-6.39;74.20;99507.69;99903;1340;73738;-67
2021/12/09 06:26:06;;;;;;;14.10;5.70;;;;;;;-6.34;74.59;99505.52;99890;1336;68935;-68
2021/12/09 06:28:54;;;;;;;14.60;5.20;;;;;;;-6.29;74.17;99500.42;100107;1340;72745;-66
2021/12/09 06:31:42;;;;;;;19.00;7.10;;;;;;;-6.26;74.16;99500.21;99830;1336;59858;-70
2021/12/09 06:34:31;;;;;;;12.40;6.00;;;;;;;-6.26;73.92;99499.17;99971;1339;60712;-66
2021/12/09 06:37:20;;;;;;;14.80;6.50;;;;;;;-6.27;74.01;99499.19;99836;1343;74320;-70
2021/12/09 06:40:13;;;;;;;19.30;6.30;;;;;;;-6.25;74.10;99498.11;100003;1337;68940;-69
2021/12/09 06:43:01;;;;;;;16.00;6.40;;;;;;;-6.26;74.43;99490.88;99633;1339;73403;-64
2021/12/09 06:45:53;;;;;;;15.70;6.00;;;;;;;-6.25;74.71;99490.34;99927;1342;59647;-66
2021/12/09 06:48:42;;;;;;;17.70;6.40;;;;;;;-6.21;74.82;99486.98;98922;1342;1003373;-67
2021/12/09 06:51:31;;;;;;;15.30;6.00;;;;;;;-6.18;74.63;99485.87;100025;1336;74384;-72
2021/12/09 06:54:19;;;;;;;18.40;6.50;;;;;;;-6.18;74.70;99487.61;99722;1342;68740;-68
2021/12/09 06:57:07;;;;;;;19.40;7.30;;;;;;;-6.16;74.69;99488.10;100058;1336;73302;-68
2021/12/09 06:59:55;;;;;;;16.90;6.50;;;;;;;-6.18;74.81;99488.99;100285;1337;59854;-65
2021/12/09 07:02:44;;;;;;;13.70;4.60;;;;;;;-6.16;75.04;99489.32;100217;1343;60144;-68
2021/12/09 07:05:33;;;;;;;15.60;5.90;;;;;;;-6.14;75.28;99489.63;99815;1339;73660;-70
2021/12/09 07:08:22;;;;;;;15.70;6.60;;;;;;;-6.12;75.41;99488.89;100157;1344;69500;-70
2021/12/09 07:11:10;;;;;;;17.90;7.50;;;;;;;-6.11;75.52;99495.44;99958;1337;71950;-69
2021/12/09 07:14:01;;;;;;;17.70;7.30;;;;;;;-6.11;75.79;99495.09;99851;1339;59666;-64
2021/12/09 07:16:49;;;;;;;19.90;6.90;;;;;;;-6.09;76.26;99491.77;99319;1342;1003125;-66
2021/12/09 07:19:39;;;;;;;18.90;7.50;;;;;;;-6.06;76.44;99492.41;100098;1337;74065;-67
2021/12/09 07:22:27;;;;;;;17.20;6.00;;;;;;;-6.04;77.08;99495.64;100149;1336;69969;-68
2021/12/09 07:25:18;;;;;;;19.50;7.80;;;;;;;-6.02;77.46;99498.01;99975;1340;72478;-70
2021/12/09 07:28:06;;;;;;;19.50;7.10;;;;;;;-6.01;77.85;99507.86;99863;1340;59831;-67
2021/12/09 07:30:54;;;;;;;18.40;7.30;;;;;;;-6.00;78.08;99506.11;99974;1336;60586;-68
2021/12/09 07:33:43;;;;;;;18.00;6.40;;;;;;;-6.00;78.70;99507.84;100256;1337;72901;-70
2021/12/09 07:36:32;;;;;;;18.80;7.50;;;;;;;-5.99;78.95;99507.30;99602;1337;1003191;-67
2021/12/09 07:39:21;;;;;;;17.10;7.60;;;;;;;-5.97;79.34;99507.09;99904;1343;73020;-70
2021/12/09 07:42:13;;;;;;;18.30;6.20;;;;;;;-5.93;79.70;99507.69;100226;1339;61443;-67
2021/12/09 07:45:07;;;;;;;18.80;7.80;;;;;;;-5.91;80.17;99499.52;99670;1346;59644;-72
2021/12/09 07:47:57;;;;;;;16.20;6.30;;;;;;;-5.90;80.16;99495.36;99639;1342;73866;-66
2021/12/09 07:50:46;;;;;;;19.00;8.30;;;;;;;-5.87;80.23;99490.29;99496;1348;68757;-67
2021/12/09 07:53:34;;;;;;;16.70;7.30;;;;;;;-5.80;80.67;99489.45;99754;1342;71483;-69
2021/12/09 07:56:22;;;;;;;17.20;7.60;;;;;;;-5.77;80.41;99483.69;99709;1346;59750;-68
2021/12/09 07:59:12;;;;;;;18.80;7.90;;;;;;;-5.72;80.23;99476.14;99949;1345;59705;-69
2021/12/09 08:02:01;;;;;;;21.70;7.50;;;;;;;-5.68;80.15;99468.45;99560;1342;72717;-70
2021/12/09 08:04:56;;;;;;;25.20;8.40;;;;;;;-5.63;80.37;99462.33;99737;1342;67499;-68
2021/12/09 08:07:45;;;;;;;16.40;6.20;;;;;;;-5.58;80.05;99461.68;98825;1342;1003774;-67
2021/12/09 08:10:34;;;;;;;17.60;7.50;;;;;;;-5.58;80.11;99468.78;99488;1342;59683;-66
2021/12/09 08:13:23;;;;;;;17.40;7.80;;;;;;;-5.60;80.19;99481.79;99641;1346;60630;-67
2021/12/09 08:16:12;;;;;;;17.20;7.60;;;;;;;-5.58;80.09;99480.35;98916;1342;1003798;-68
2021/12/09 08:19:00;;;;;;;17.80;7.60;;;;;;;-5.52;79.96;99482.64;99498;1342;68280;-68
2021/12/09 08:21:49;;;;;;;19.80;7.80;;;;;;;-5.53;79.92;99479.40;99773;1339;72249;-69
2021/12/09 08:24:36;;;;;;;19.20;7.50;;;;;;;-5.65;80.30;99485.52;99969;1336;59818;-68
2021/12/09 08:27:26;;;;;;;19.70;7.60;;;;;;;-5.72;80.44;99486.17;100015;1337;60276;-69
2021/12/09 08:30:24;;;;;;;18.00;7.40;;;;;;;-5.81;81.10;99489.30;100087;1337;72087;-69
2021/12/09 08:33:32;;;;;;;15.60;6.50;;;;;;;-5.89;81.40;99480.98;100053;1336;68565;-67
2021/12/09 08:36:22;;;;;;;17.70;8.50;;;;;;;-5.88;81.80;99475.61;100097;1337;72557;-69
2021/12/09 08:39:10;;;;;;;18.60;7.70;;;;;;;-5.88;81.85;99478.04;99742;1340;59782;-70
2021/12/09 08:41:59;;;;;;;16.60;7.00;;;;;;;-5.90;82.17;99480.33;100308;1336;59722;-69
2021/12/09 08:44:47;;;;;;;19.50;8.30;;;;;;;-5.94;82.55;99474.88;100220;1340;74874;-68
2021/12/09 08:47:42;;;;;;;18.30;7.90;;;;;;;-5.91;82.67;99471.35;100150;1337;69683;-68
2021/12/09 08:50:33;;;;;;;18.50;7.80;;;;;;;-5.89;83.03;99470.95;99881;1337;73500;-69
2021/12/09 08:53:24;;;;;;;17.70;7.60;;;;;;;-5.93;82.98;99471.92;100031;1339;60086;-69
2021/12/09 08:56:12;;;;;;;16.70;7.40;;;;;;;-5.92;83.36;99465.34;100402;1337;60508;-72
2021/12/09 08:59:04;;;;;;;15.70;7.50;;;;;;;-5.93;83.56;99471.73;100826;1337;74234;-68
2021/12/09 09:01:54;;;;;;;18.20;8.40;;;;;;;-5.91;83.29;99472.40;100864;1342;66655;-66
2021/12/09 09:04:43;;;;;;;20.30;8.40;;;;;;;-5.91;83.77;99471.54;100975;1337;73288;-67
2021/12/09 09:07:31;;;;;;;18.80;8.30;;;;;;;-5.87;83.53;99476.13;100059;1336;1003910;-67
2021/12/09 09:10:25;;;;;;;19.80;8.80;;;;;;;-5.86;83.94;99477.30;100359;1340;59707;-67
2021/12/09 09:13:14;;;;;;;17.50;7.40;;;;;;;-5.81;84.07;99460.44;99517;1336;1003214;-70
2021/12/09 09:16:02;;;;;;;15.70;7.50;;;;;;;-5.70;83.92;99449.84;100057;1336;69046;-67
2021/12/09 09:18:53;;;;;;;21.00;9.10;;;;;;;-5.57;84.00;99439.19;99040;1339;1003715;-72
2021/12/09 09:21:42;;;;;;;18.20;8.00;;;;;;;-5.41;82.96;99444.02;99992;1339;59825;-72
2021/12/09 09:24:31;;;;;;;20.30;7.90;;;;;;;-5.27;82.55;99421.77;100141;1339;60713;-73
2021/12/09 09:27:19;;;;;;;20.50;9.20;;;;;;;-5.11;82.79;99411.17;100260;1340;74850;-72
2021/12/09 09:30:14;;;;;;;20.10;8.70;;;;;;;-4.93;81.96;99416.64;100167;1336;67558;-71
2021/12/09 09:33:07;;;;;;;19.60;8.80;;;;;;;-5.05;81.02;99419.34;100095;1337;73149;-71
2021/12/09 09:35:58;;;;;;;20.40;8.60;;;;;;;-5.08;81.66;99415.08;99916;1337;59827;-70
2021/12/09 09:38:47;;;;;;;22.80;9.50;;;;;;;-5.07;81.74;99419.02;99260;1340;1003242;-72
2021/12/09 09:41:36;;;;;;;18.40;8.60;;;;;;;-5.02;81.84;99419.77;100415;1337;75163;-72
2021/12/09 09:44:44;;;;;;;21.90;7.80;;;;;;;-4.99;81.89;99428.52;100236;1337;68161;-70
2021/12/09 09:47:32;;;;;;;20.10;8.80;;;;;;;-5.02;81.53;99431.38;100307;1337;73105;-72
2021/12/09 09:50:21;;;;;;;19.50;8.50;;;;;;;-5.07;82.02;99426.99;99977;1337;59712;-70
2021/12/09 09:53:10;;;;;;;18.70;8.70;;;;;;;-5.04;82.01;99420.00;100358;1337;60407;-71
2021/12/09 09:55:58;;;;;;;18.60;9.30;;;;;;;-4.98;82.07;99426.44;100030;1337;73161;-70
2021/12/09 09:58:52;;;;;;;19.70;8.70;;;;;;;-4.90;82.14;99414.13;100179;1336;68540;-70
2021/12/09 10:01:41;;;;;;;18.30;7.70;;;;;;;-4.73;82.17;99409.73;100169;1339;73173;-69
2021/12/09 10:04:43;;;;;;;19.70;9.00;;;;;;;-4.69;81.45;99420.52;99930;1340;59818;-70
2021/12/09 10:07:33;;;;;;;19.90;8.80;;;;;;;-4.82;81.56;99417.90;100057;1336;59803;-70
2021/12/09 10:10:23;;;;;;;24.00;10.10;;;;;;;-4.86;81.94;99416.27;100174;1340;72085;-69
2021/12/09 10:13:14;;;;;;;23.50;8.90;;;;;;;-4.91;82.34;99416.76;100014;1339;67928;-69
2021/12/09 10:16:15;;;;;;;22.30;11.00;;;;;;;-4.93;82.58;99415.60;99985;1337;73199;-69
2021/12/09 10:19:22;;;;;;;21.40;9.50;;;;;;;-4.99;82.85;99427.84;99720;1336;59821;-68
2021/12/09 10:22:17;;;;;;;19.40;9.10;;;;;;;-5.03;83.21;99435.54;100230;1336;59860;-69
2021/12/09 10:25:29;;;;;;;21.10;10.20;;;;;;;-5.02;83.40;99425.65;100509;1336;73737;-70
2021/12/09 10:28:25;;;;;;;21.80;9.90;;;;;;;-4.96;83.36;99423.27;100043;1340;65440;-70
2021/12/09 10:31:20;;;;;;;25.10;12.30;;;;;;;-4.86;83.62;99420.59;100349;1340;73133;-71
2021/12/09 10:37:33;;;;;;;23.50;10.40;;;;;;;-4.72;83.36;99427.02;99878;1339;60391;-67
2021/12/09 10:40:27;;;;;;;26.30;10.70;;;;;;;-4.70;83.38;99425.22;99977;1337;73495;-71
2021/12/09 10:43:17;;;;;;;29.80;11.50;;;;;;;-4.62;83.43;99428.30;99953;1339;68124;-67
2021/12/09 10:46:11;;;;;;;25.20;11.00;;;;;;;-4.55;82.75;99419.81;100088;1337;72435;-72
2021/12/09 12:06:48;;;;;;;24.90;10.80;;;;;;;-4.55;84.86;99375.33;100109;1336;60624;-70
2021/12/09 12:13:02;;;;;;;28.70;12.90;;;;;;;-4.36;84.07;99368.40;100147;1343;68385;-70
2021/12/09 12:15:57;;;;;;;27.10;11.70;;;;;;;-4.35;83.85;99353.46;99828;1337;71615;-69
2021/12/09 12:18:57;;;;;;;28.90;13.40;;;;;;;-4.29;84.02;99344.80;99873;1340;59695;-70
2021/12/09 12:22:11;;;;;;;34.50;14.20;;;;;;;-4.25;83.51;99344.89;100248;1336;60616;-70
2021/12/09 12:25:09;;;;;;;39.20;13.70;;;;;;;-4.26;83.63;99342.98;100409;1337;73556;-71
2021/12/09 12:35:11;;;;;;;32.30;13.90;;;;;;;-4.29;84.15;99337.36;99965;1341;59835;-70
2021/12/09 12:41:15;;;;;;;31.00;13.70;;;;;;;-4.37;84.37;99349.00;99274;1337;1003119;-70
2021/12/09 12:44:07;;;;;;;30.20;12.30;;;;;;;-4.38;84.56;99338.46;100182;1337;68623;-70
2021/12/09 12:47:08;;;;;;;29.30;11.60;;;;;;;-4.37;84.76;99330.14;100055;1340;73342;-71
2021/12/09 12:50:12;;;;;;;29.90;13.30;;;;;;;-4.35;84.53;99327.67;99998;1340;59794;-71
2021/12/09 12:53:38;;;;;;;29.30;12.80;;;;;;;-4.36;85.03;99321.64;100014;1340;59793;-71
2021/12/09 12:56:47;;;;;;;31.10;13.10;;;;;;;-4.35;84.90;99320.39;99890;1337;73562;-71
2021/12/09 12:59:40;;;;;;;30.20;13.30;;;;;;;-4.33;84.86;99329.50;100347;1336;68364;-71
2021/12/09 13:05:47;;;;;;;26.80;12.70;;;;;;;-4.26;84.92;99347.67;99033;1339;1003862;-71
2021/12/09 13:08:53;;;;;;;32.30;13.40;;;;;;;-4.24;85.21;99358.55;100086;1336;60828;-71
2021/12/09 13:11:48;;;;;;;33.30;12.60;;;;;;;-4.25;85.49;99349.89;100084;1343;73513;-71
2021/12/09 13:15:08;;;;;;;33.70;14.60;;;;;;;-4.24;85.12;99351.42;99671;1342;68710;-72
2021/12/09 13:18:04;;;;;;;31.10;13.80;;;;;;;-4.27;85.03;99341.64;100078;1342;73283;-72
2021/12/09 13:20:53;;;;;;;28.90;12.60;;;;;;;-4.28;85.14;99338.36;99927;1341;59869;-71
2021/12/09 13:23:42;;;;;;;27.40;12.60;;;;;;;-4.26;85.27;99337.44;99865;1336;60974;-71
2021/12/09 13:26:35;;;;;;;28.00;13.00;;;;;;;-4.23;85.53;99331.33;100072;1339;73575;-71
2021/12/09 13:29:43;;;;;;;30.70;13.80;;;;;;;-4.21;85.50;99339.73;99604;1339;66828;-72
2021/12/09 13:36:18;;;;;;;31.50;13.60;;;;;;;-4.16;85.63;99338.20;100044;1336;59769;-71
2021/12/09 13:48:40;;;;;;;29.30;13.10;;;;;;;-4.17;85.54;99339.44;100311;1337;73083;-72
2021/12/09 13:54:06;;;;;;;29.60;12.50;;;;;;;-4.16;85.63;99339.23;99420;1343;1003053;-72
2021/12/09 13:54:39;;;;;;;32.60;15.50;;;;;;;-4.21;85.63;99343.39;100226;1336;60806;-71
2021/12/09 13:57:47;;;;;;;36.20;15.80;;;;;;;-4.25;85.60;99349.05;100055;1336;73178;-72
2021/12/09 14:00:55;;;;;;;30.90;13.90;;;;;;;-4.27;86.22;99348.05;100063;1336;68255;-71
2021/12/09 14:03:44;;;;;;;26.60;12.50;;;;;;;-4.30;86.20;99345.88;100085;1340;72855;-72
2021/12/09 14:06:33;;;;;;;30.00;14.10;;;;;;;-4.32;86.57;99340.91;99851;1340;59764;-71
2021/12/09 14:09:29;;;;;;;30.00;15.20;;;;;;;-4.33;86.56;99333.84;99755;1339;59775;-70
2021/12/09 14:12:18;;;;;;;35.20;16.00;;;;;;;-4.36;86.73;99335.64;99938;1337;73586;-70
2021/12/09 14:15:16;;;;;;;32.80;14.60;;;;;;;-4.37;87.32;99343.15;99077;1342;1002757;-71
2021/12/09 14:18:19;;;;;;;35.50;15.90;;;;;;;-4.38;87.41;99342.48;100274;1338;71669;-71
2021/12/09 14:21:08;;;;;;;33.50;16.20;;;;;;;-4.38;87.07;99346.45;99839;1345;59732;-70
2021/12/09 14:24:19;;;;;;;29.40;13.40;;;;;;;-4.38;87.48;99347.84;99668;1342;59725;-71
2021/12/09 14:27:16;;;;;;;31.40;13.90;;;;;;;-4.39;87.79;99346.81;99156;1345;1003746;-71
2021/12/09 14:30:12;;;;;;;30.50;14.30;;;;;;;-4.38;87.84;99346.80;99416;1343;68822;-71
2021/12/09 14:33:01;;;;;;;28.40;10.80;;;;;;;-4.36;87.67;99340.16;99141;1343;1003002;-71
2021/12/09 14:36:05;;;;;;;33.10;14.40;;;;;;;-4.37;87.58;99350.92;98906;1342;1003890;-71
2021/12/09 14:39:03;;;;;;;30.50;14.20;;;;;;;-4.35;88.01;99363.69;99633;1348;59826;-71
2021/12/09 14:42:11;;;;;;;33.10;15.30;;;;;;;-4.35;87.78;99353.80;99751;1341;72307;-71
2021/12/09 14:45:09;;;;;;;29.30;13.00;;;;;;;-4.35;88.08;99357.09;99846;1340;66769;-71
2021/12/09 14:48:06;;;;;;;33.90;14.50;;;;;;;-4.35;88.03;99352.76;99623;1345;71863;-71
2021/12/09 14:50:56;;;;;;;36.50;15.70;;;;;;;-4.34;88.05;99358.98;99644;1345;59777;-71
2021/12/09 14:54:01;;;;;;;33.80;15.60;;;;;;;-4.33;88.41;99356.70;99996;1341;59793;-71
2021/12/09 14:57:02;;;;;;;34.50;13.90;;;;;;;-4.32;87.93;99349.58;100022;1340;74140;-71
2021/12/09 14:59:51;;;;;;;35.70;16.30;;;;;;;-4.32;88.61;99364.81;99359;1342;1003798;-71
2021/12/09 15:02:50;;;;;;;33.30;15.90;;;;;;;-4.30;88.45;99364.58;99812;1344;73262;-72